sensor_id;sensor_type;location;lat;lon;timestamp;temperature;humidity
30134;DHT22;16946;49.984;10.672;2022-08-24T00:00:23;16.00;99.90
30134;DHT22;16946;49.984;10.672;2022-08-24T00:00:54;16.00;99.90
30134;DHT22;16946;49.984;10.672;2022-08-24T00:01:25;15.90;99.90
30134;DHT22;16946;49.984;10.672;2022-08-24T00:01:57;15.80;99.90
30134;DHT22;16946;49.984;10.672;2022-08-24T00:02:27;15.70;99.90
30134;DHT22;16946;49.984;10.672;2022-08-24T00:02:58;15.70;99.90
30134;DHT22;16946;49.984;10.672;2022-08-24T00:03:28;15.80;99.90
30134;DHT22;16946;49.984;10.672;2022-08-24T00:03:59;15.80;99.90
30134;DHT22;16946;49.984;10.672;2022-08-24T00:04:30;15.90;99.90
30134;DHT22;16946;49.984;10.672;2022-08-24T00:05:00;15.80;99.90
30134;DHT22;16946;49.984;10.672;2022-08-24T00:05:31;15.80;99.90
30134;DHT22;16946;49.984;10.672;2022-08-24T00:06:04;15.80;99.90
30134;DHT22;16946;49.984;10.672;2022-08-24T00:06:35;15.80;99.90
30134;DHT22;16946;49.984;10.672;2022-08-24T00:07:06;15.80;99.90
30134;DHT22;16946;49.984;10.672;2022-08-24T00:07:38;15.80;99.90
30134;DHT22;16946;49.984;10.672;2022-08-24T00:08:09;15.70;99.90
30134;DHT22;16946;49.984;10.672;2022-08-24T00:08:40;15.70;99.90
30134;DHT22;16946;49.984;10.672;2022-08-24T00:09:11;15.60;99.90
30134;DHT22;16946;49.984;10.672;2022-08-24T00:09:42;15.50;99.90
30134;DHT22;16946;49.984;10.672;2022-08-24T00:10:12;15.50;99.90
30134;DHT22;16946;49.984;10.672;2022-08-24T00:10:43;15.50;99.90
30134;DHT22;16946;49.984;10.672;2022-08-24T00:11:13;15.60;99.90
30134;DHT22;16946;49.984;10.672;2022-08-24T00:11:44;15.60;99.90
30134;DHT22;16946;49.984;10.672;2022-08-24T00:12:15;15.60;99.90
30134;DHT22;16946;49.984;10.672;2022-08-24T00:12:46;15.60;99.90
30134;DHT22;16946;49.984;10.672;2022-08-24T00:13:17;15.70;99.90
30134;DHT22;16946;49.984;10.672;2022-08-24T00:13:48;15.80;99.90
30134;DHT22;16946;49.984;10.672;2022-08-24T00:14:19;15.80;99.90
30134;DHT22;16946;49.984;10.672;2022-08-24T00:14:49;15.90;99.90
30134;DHT22;16946;49.984;10.672;2022-08-24T00:15:20;15.90;99.90
30134;DHT22;16946;49.984;10.672;2022-08-24T00:15:51;15.90;99.90
30134;DHT22;16946;49.984;10.672;2022-08-24T00:16:22;16.00;99.90
30134;DHT22;16946;49.984;10.672;2022-08-24T00:16:53;16.00;99.90
30134;DHT22;16946;49.984;10.672;2022-08-24T00:17:24;16.00;99.90
30134;DHT22;16946;49.984;10.672;2022-08-24T00:17:54;16.00;99.90
30134;DHT22;16946;49.984;10.672;2022-08-24T00:18:25;16.00;99.90
30134;DHT22;16946;49.984;10.672;2022-08-24T00:18:56;16.00;99.90
30134;DHT22;16946;49.984;10.672;2022-08-24T00:19:27;16.00;99.90
30134;DHT22;16946;49.984;10.672;2022-08-24T00:19:58;15.90;99.90
30134;DHT22;16946;49.984;10.672;2022-08-24T00:20:29;15.90;99.90
30134;DHT22;16946;49.984;10.672;2022-08-24T00:21:01;15.90;99.90
30134;DHT22;16946;49.984;10.672;2022-08-24T00:21:31;15.90;99.90
30134;DHT22;16946;49.984;10.672;2022-08-24T00:22:03;15.80;99.90
30134;DHT22;16946;49.984;10.672;2022-08-24T00:22:33;15.90;99.90
30134;DHT22;16946;49.984;10.672;2022-08-24T00:23:05;15.90;99.90
30134;DHT22;16946;49.984;10.672;2022-08-24T00:23:35;15.90;99.90
30134;DHT22;16946;49.984;10.672;2022-08-24T00:24:06;15.80;99.90
30134;DHT22;16946;49.984;10.672;2022-08-24T00:24:37;15.80;99.90
30134;DHT22;16946;49.984;10.672;2022-08-24T00:25:09;15.80;99.90
30134;DHT22;16946;49.984;10.672;2022-08-24T00:25:41;15.80;99.90
30134;DHT22;16946;49.984;10.672;2022-08-24T00:26:12;15.70;99.90
30134;DHT22;16946;49.984;10.672;2022-08-24T00:26:44;15.70;99.90
30134;DHT22;16946;49.984;10.672;2022-08-24T00:27:15;15.60;99.90
30134;DHT22;16946;49.984;10.672;2022-08-24T00:27:46;15.40;99.90
30134;DHT22;16946;49.984;10.672;2022-08-24T00:28:17;15.30;99.90
30134;DHT22;16946;49.984;10.672;2022-08-24T00:28:47;15.30;99.90
30134;DHT22;16946;49.984;10.672;2022-08-24T00:29:20;15.30;99.90
30134;DHT22;16946;49.984;10.672;2022-08-24T00:29:51;15.30;99.90
30134;DHT22;16946;49.984;10.672;2022-08-24T00:30:22;15.40;99.90
30134;DHT22;16946;49.984;10.672;2022-08-24T00:30:52;15.50;99.90
30134;DHT22;16946;49.984;10.672;2022-08-24T00:31:23;15.40;99.90
30134;DHT22;16946;49.984;10.672;2022-08-24T00:31:54;15.50;99.90
30134;DHT22;16946;49.984;10.672;2022-08-24T00:32:24;15.50;99.90
30134;DHT22;16946;49.984;10.672;2022-08-24T00:32:55;15.50;99.90
30134;DHT22;16946;49.984;10.672;2022-08-24T00:33:26;15.60;99.90
30134;DHT22;16946;49.984;10.672;2022-08-24T00:33:57;15.60;99.90
30134;DHT22;16946;49.984;10.672;2022-08-24T00:34:29;15.50;99.90
30134;DHT22;16946;49.984;10.672;2022-08-24T00:35:00;15.40;99.90
30134;DHT22;16946;49.984;10.672;2022-08-24T00:35:30;15.30;99.90
30134;DHT22;16946;49.984;10.672;2022-08-24T00:36:02;15.20;99.90
30134;DHT22;16946;49.984;10.672;2022-08-24T00:36:33;15.10;99.90
30134;DHT22;16946;49.984;10.672;2022-08-24T00:37:04;15.00;99.90
30134;DHT22;16946;49.984;10.672;2022-08-24T00:37:36;15.00;99.90
30134;DHT22;16946;49.984;10.672;2022-08-24T00:38:06;15.00;99.90
30134;DHT22;16946;49.984;10.672;2022-08-24T00:38:37;15.00;99.90
30134;DHT22;16946;49.984;10.672;2022-08-24T00:39:09;15.10;99.90
30134;DHT22;16946;49.984;10.672;2022-08-24T00:39:39;15.00;99.90
30134;DHT22;16946;49.984;10.672;2022-08-24T00:40:14;14.90;99.90
30134;DHT22;16946;49.984;10.672;2022-08-24T00:40:47;14.80;99.90
30134;DHT22;16946;49.984;10.672;2022-08-24T00:41:18;14.90;99.90
30134;DHT22;16946;49.984;10.672;2022-08-24T00:41:50;14.90;99.90
30134;DHT22;16946;49.984;10.672;2022-08-24T00:42:21;14.90;99.90
30134;DHT22;16946;49.984;10.672;2022-08-24T00:42:51;14.90;99.90
30134;DHT22;16946;49.984;10.672;2022-08-24T00:43:24;15.00;99.90
30134;DHT22;16946;49.984;10.672;2022-08-24T00:43:59;15.00;99.90
30134;DHT22;16946;49.984;10.672;2022-08-24T00:44:30;15.10;99.90
30134;DHT22;16946;49.984;10.672;2022-08-24T00:45:02;15.10;99.90
30134;DHT22;16946;49.984;10.672;2022-08-24T00:45:39;15.20;99.90
30134;DHT22;16946;49.984;10.672;2022-08-24T00:46:18;15.20;99.90
30134;DHT22;16946;49.984;10.672;2022-08-24T00:47:10;15.20;99.90
30134;DHT22;16946;49.984;10.672;2022-08-24T00:47:50;15.30;99.90
30134;DHT22;16946;49.984;10.672;2022-08-24T00:48:26;15.30;99.90
30134;DHT22;16946;49.984;10.672;2022-08-24T00:49:05;15.20;99.90
30134;DHT22;16946;49.984;10.672;2022-08-24T00:49:45;15.20;99.90
30134;DHT22;16946;49.984;10.672;2022-08-24T00:50:26;15.20;99.90
30134;DHT22;16946;49.984;10.672;2022-08-24T00:51:03;15.30;99.90
30134;DHT22;16946;49.984;10.672;2022-08-24T00:51:39;15.20;99.90
30134;DHT22;16946;49.984;10.672;2022-08-24T00:52:24;15.20;99.90
30134;DHT22;16946;49.984;10.672;2022-08-24T00:52:57;15.20;99.90
30134;DHT22;16946;49.984;10.672;2022-08-24T00:53:36;15.20;99.90
30134;DHT22;16946;49.984;10.672;2022-08-24T00:54:11;15.20;99.90
30134;DHT22;16946;49.984;10.672;2022-08-24T00:54:47;15.20;99.90
30134;DHT22;16946;49.984;10.672;2022-08-24T00:56:20;15.20;99.90
30134;DHT22;16946;49.984;10.672;2022-08-24T00:56:57;15.20;99.90
30134;DHT22;16946;49.984;10.672;2022-08-24T00:57:32;15.30;99.90
30134;DHT22;16946;49.984;10.672;2022-08-24T00:58:14;15.30;99.90
30134;DHT22;16946;49.984;10.672;2022-08-24T00:58:50;15.40;99.90
30134;DHT22;16946;49.984;10.672;2022-08-24T00:59:35;15.40;99.90
30134;DHT22;16946;49.984;10.672;2022-08-24T01:00:12;15.50;99.90
30134;DHT22;16946;49.984;10.672;2022-08-24T01:00:48;15.50;99.90
30134;DHT22;16946;49.984;10.672;2022-08-24T01:01:20;15.50;99.90
30134;DHT22;16946;49.984;10.672;2022-08-24T01:01:51;15.50;99.90
30134;DHT22;16946;49.984;10.672;2022-08-24T01:02:26;15.50;99.90
30134;DHT22;16946;49.984;10.672;2022-08-24T01:03:02;15.40;99.90
30134;DHT22;16946;49.984;10.672;2022-08-24T01:03:35;15.40;99.90
30134;DHT22;16946;49.984;10.672;2022-08-24T01:04:09;15.50;99.90
30134;DHT22;16946;49.984;10.672;2022-08-24T01:04:47;15.40;99.90
30134;DHT22;16946;49.984;10.672;2022-08-24T01:05:18;15.40;99.90
30134;DHT22;16946;49.984;10.672;2022-08-24T01:05:49;15.40;99.90
30134;DHT22;16946;49.984;10.672;2022-08-24T01:06:20;15.50;99.90
30134;DHT22;16946;49.984;10.672;2022-08-24T01:06:50;15.50;99.90
30134;DHT22;16946;49.984;10.672;2022-08-24T01:07:23;15.60;99.90
30134;DHT22;16946;49.984;10.672;2022-08-24T01:07:54;15.60;99.90
30134;DHT22;16946;49.984;10.672;2022-08-24T01:08:25;15.60;99.90
30134;DHT22;16946;49.984;10.672;2022-08-24T01:08:55;15.60;99.90
30134;DHT22;16946;49.984;10.672;2022-08-24T01:09:26;15.70;99.90
30134;DHT22;16946;49.984;10.672;2022-08-24T01:10:08;15.60;99.90
30134;DHT22;16946;49.984;10.672;2022-08-24T01:10:57;15.60;99.90
30134;DHT22;16946;49.984;10.672;2022-08-24T01:11:30;15.70;99.90
30134;DHT22;16946;49.984;10.672;2022-08-24T01:12:00;15.70;99.90
30134;DHT22;16946;49.984;10.672;2022-08-24T01:12:34;15.60;99.90
30134;DHT22;16946;49.984;10.672;2022-08-24T01:13:07;15.60;99.90
30134;DHT22;16946;49.984;10.672;2022-08-24T01:13:44;15.50;99.90
30134;DHT22;16946;49.984;10.672;2022-08-24T01:14:17;15.50;99.90
30134;DHT22;16946;49.984;10.672;2022-08-24T01:14:50;15.50;99.90
30134;DHT22;16946;49.984;10.672;2022-08-24T01:15:20;15.40;99.90
30134;DHT22;16946;49.984;10.672;2022-08-24T01:15:54;15.40;99.90
30134;DHT22;16946;49.984;10.672;2022-08-24T01:16:27;15.40;99.90
30134;DHT22;16946;49.984;10.672;2022-08-24T01:17:16;15.30;99.90
30134;DHT22;16946;49.984;10.672;2022-08-24T01:18:07;15.20;99.90
30134;DHT22;16946;49.984;10.672;2022-08-24T01:18:58;15.10;99.90
30134;DHT22;16946;49.984;10.672;2022-08-24T01:20:04;15.10;99.90
30134;DHT22;16946;49.984;10.672;2022-08-24T01:20:36;15.10;99.90
30134;DHT22;16946;49.984;10.672;2022-08-24T01:21:36;15.10;99.90
30134;DHT22;16946;49.984;10.672;2022-08-24T01:22:19;15.10;99.90
30134;DHT22;16946;49.984;10.672;2022-08-24T01:24:11;15.10;99.90
30134;DHT22;16946;49.984;10.672;2022-08-24T01:24:42;15.10;99.90
30134;DHT22;16946;49.984;10.672;2022-08-24T01:25:14;15.10;99.90
30134;DHT22;16946;49.984;10.672;2022-08-24T01:25:45;15.10;99.90
30134;DHT22;16946;49.984;10.672;2022-08-24T01:26:23;15.10;99.90
30134;DHT22;16946;49.984;10.672;2022-08-24T01:26:55;15.10;99.90
30134;DHT22;16946;49.984;10.672;2022-08-24T01:27:26;15.10;99.90
30134;DHT22;16946;49.984;10.672;2022-08-24T01:28:01;15.10;99.90
30134;DHT22;16946;49.984;10.672;2022-08-24T01:28:33;15.10;99.90
30134;DHT22;16946;49.984;10.672;2022-08-24T01:29:12;15.20;99.90
30134;DHT22;16946;49.984;10.672;2022-08-24T01:29:44;15.20;99.90
30134;DHT22;16946;49.984;10.672;2022-08-24T01:30:17;15.20;99.90
30134;DHT22;16946;49.984;10.672;2022-08-24T01:30:47;15.30;99.90
30134;DHT22;16946;49.984;10.672;2022-08-24T01:31:20;15.30;99.90
30134;DHT22;16946;49.984;10.672;2022-08-24T01:31:52;15.40;99.90
30134;DHT22;16946;49.984;10.672;2022-08-24T01:32:23;15.40;99.90
30134;DHT22;16946;49.984;10.672;2022-08-24T01:32:59;15.40;99.90
30134;DHT22;16946;49.984;10.672;2022-08-24T01:33:31;15.40;99.90
30134;DHT22;16946;49.984;10.672;2022-08-24T01:34:02;15.30;99.90
30134;DHT22;16946;49.984;10.672;2022-08-24T01:34:33;15.30;99.90
30134;DHT22;16946;49.984;10.672;2022-08-24T01:35:05;15.30;99.90
30134;DHT22;16946;49.984;10.672;2022-08-24T01:35:38;15.30;99.90
30134;DHT22;16946;49.984;10.672;2022-08-24T01:37:01;15.30;99.90
30134;DHT22;16946;49.984;10.672;2022-08-24T01:37:33;15.20;99.90
30134;DHT22;16946;49.984;10.672;2022-08-24T01:38:08;15.20;99.90
30134;DHT22;16946;49.984;10.672;2022-08-24T01:38:40;15.20;99.90
30134;DHT22;16946;49.984;10.672;2022-08-24T01:39:43;15.10;99.90
30134;DHT22;16946;49.984;10.672;2022-08-24T01:40:16;15.10;99.90
30134;DHT22;16946;49.984;10.672;2022-08-24T01:40:52;15.00;99.90
30134;DHT22;16946;49.984;10.672;2022-08-24T01:41:23;15.00;99.90
30134;DHT22;16946;49.984;10.672;2022-08-24T01:41:54;14.90;99.90
30134;DHT22;16946;49.984;10.672;2022-08-24T01:42:25;14.80;99.90
30134;DHT22;16946;49.984;10.672;2022-08-24T01:42:58;14.80;99.90
30134;DHT22;16946;49.984;10.672;2022-08-24T01:43:29;14.80;99.90
30134;DHT22;16946;49.984;10.672;2022-08-24T01:44:00;14.70;99.90
30134;DHT22;16946;49.984;10.672;2022-08-24T01:44:33;14.70;99.90
30134;DHT22;16946;49.984;10.672;2022-08-24T01:45:04;14.70;99.90
30134;DHT22;16946;49.984;10.672;2022-08-24T01:45:35;14.70;99.90
30134;DHT22;16946;49.984;10.672;2022-08-24T01:46:05;14.70;99.90
30134;DHT22;16946;49.984;10.672;2022-08-24T01:46:36;14.70;99.90
30134;DHT22;16946;49.984;10.672;2022-08-24T01:47:09;14.60;99.90
30134;DHT22;16946;49.984;10.672;2022-08-24T01:47:40;14.60;99.90
30134;DHT22;16946;49.984;10.672;2022-08-24T01:48:11;14.60;99.90
30134;DHT22;16946;49.984;10.672;2022-08-24T01:48:43;14.70;99.90
30134;DHT22;16946;49.984;10.672;2022-08-24T01:49:15;14.70;99.90
30134;DHT22;16946;49.984;10.672;2022-08-24T01:49:47;14.60;99.90
30134;DHT22;16946;49.984;10.672;2022-08-24T01:50:18;14.50;99.90
30134;DHT22;16946;49.984;10.672;2022-08-24T01:50:48;14.50;99.90
30134;DHT22;16946;49.984;10.672;2022-08-24T01:51:19;14.50;99.90
30134;DHT22;16946;49.984;10.672;2022-08-24T01:51:50;14.40;99.90
30134;DHT22;16946;49.984;10.672;2022-08-24T01:52:24;14.40;99.90
30134;DHT22;16946;49.984;10.672;2022-08-24T01:52:55;14.30;99.90
30134;DHT22;16946;49.984;10.672;2022-08-24T01:53:28;14.30;99.90
30134;DHT22;16946;49.984;10.672;2022-08-24T01:53:59;14.30;99.90
30134;DHT22;16946;49.984;10.672;2022-08-24T01:54:32;14.30;99.90
30134;DHT22;16946;49.984;10.672;2022-08-24T01:55:09;14.30;99.90
30134;DHT22;16946;49.984;10.672;2022-08-24T01:55:40;14.30;99.90
30134;DHT22;16946;49.984;10.672;2022-08-24T01:56:11;14.30;99.90
30134;DHT22;16946;49.984;10.672;2022-08-24T01:56:41;14.30;99.90
30134;DHT22;16946;49.984;10.672;2022-08-24T01:57:12;14.30;99.90
30134;DHT22;16946;49.984;10.672;2022-08-24T01:57:43;14.40;99.90
30134;DHT22;16946;49.984;10.672;2022-08-24T01:58:14;14.40;99.90
30134;DHT22;16946;49.984;10.672;2022-08-24T01:58:46;14.40;99.90
30134;DHT22;16946;49.984;10.672;2022-08-24T01:59:17;14.40;99.90
30134;DHT22;16946;49.984;10.672;2022-08-24T01:59:49;14.50;99.90
30134;DHT22;16946;49.984;10.672;2022-08-24T02:00:20;14.50;99.90
30134;DHT22;16946;49.984;10.672;2022-08-24T02:00:51;14.50;99.90
30134;DHT22;16946;49.984;10.672;2022-08-24T02:01:22;14.50;99.90
30134;DHT22;16946;49.984;10.672;2022-08-24T02:01:57;14.50;99.90
30134;DHT22;16946;49.984;10.672;2022-08-24T02:02:31;14.50;99.90
30134;DHT22;16946;49.984;10.672;2022-08-24T02:03:02;14.50;99.90
30134;DHT22;16946;49.984;10.672;2022-08-24T02:03:33;14.40;99.90
30134;DHT22;16946;49.984;10.672;2022-08-24T02:04:05;14.40;99.90
30134;DHT22;16946;49.984;10.672;2022-08-24T02:04:36;14.40;99.90
30134;DHT22;16946;49.984;10.672;2022-08-24T02:05:08;14.40;99.90
30134;DHT22;16946;49.984;10.672;2022-08-24T02:05:39;14.40;99.90
30134;DHT22;16946;49.984;10.672;2022-08-24T02:06:10;14.30;99.90
30134;DHT22;16946;49.984;10.672;2022-08-24T02:06:40;14.30;99.90
30134;DHT22;16946;49.984;10.672;2022-08-24T02:07:13;14.20;99.90
30134;DHT22;16946;49.984;10.672;2022-08-24T02:07:44;14.20;99.90
30134;DHT22;16946;49.984;10.672;2022-08-24T02:08:15;14.20;99.90
30134;DHT22;16946;49.984;10.672;2022-08-24T02:08:46;14.10;99.90
30134;DHT22;16946;49.984;10.672;2022-08-24T02:09:16;14.10;99.90
30134;DHT22;16946;49.984;10.672;2022-08-24T02:09:47;14.20;99.90
30134;DHT22;16946;49.984;10.672;2022-08-24T02:10:18;14.20;99.90
30134;DHT22;16946;49.984;10.672;2022-08-24T02:10:48;14.20;99.90
30134;DHT22;16946;49.984;10.672;2022-08-24T02:11:19;14.20;99.90
30134;DHT22;16946;49.984;10.672;2022-08-24T02:11:49;14.20;99.90
30134;DHT22;16946;49.984;10.672;2022-08-24T02:12:20;14.30;99.90
30134;DHT22;16946;49.984;10.672;2022-08-24T02:12:51;14.30;99.90
30134;DHT22;16946;49.984;10.672;2022-08-24T02:13:28;14.20;99.90
30134;DHT22;16946;49.984;10.672;2022-08-24T02:13:59;14.30;99.90
30134;DHT22;16946;49.984;10.672;2022-08-24T02:14:30;14.30;99.90
30134;DHT22;16946;49.984;10.672;2022-08-24T02:15:01;14.30;99.90
30134;DHT22;16946;49.984;10.672;2022-08-24T02:15:36;14.30;99.90
30134;DHT22;16946;49.984;10.672;2022-08-24T02:16:09;14.30;99.90
30134;DHT22;16946;49.984;10.672;2022-08-24T02:16:40;14.30;99.90
30134;DHT22;16946;49.984;10.672;2022-08-24T02:17:10;14.30;99.90
30134;DHT22;16946;49.984;10.672;2022-08-24T02:17:41;14.30;99.90
30134;DHT22;16946;49.984;10.672;2022-08-24T02:18:11;14.30;99.90
30134;DHT22;16946;49.984;10.672;2022-08-24T02:18:43;14.30;99.90
30134;DHT22;16946;49.984;10.672;2022-08-24T02:19:14;14.30;99.90
30134;DHT22;16946;49.984;10.672;2022-08-24T02:19:45;14.30;99.90
30134;DHT22;16946;49.984;10.672;2022-08-24T02:20:15;14.30;99.90
30134;DHT22;16946;49.984;10.672;2022-08-24T02:20:46;14.30;99.90
30134;DHT22;16946;49.984;10.672;2022-08-24T02:21:16;14.30;99.90
30134;DHT22;16946;49.984;10.672;2022-08-24T02:21:47;14.30;99.90
30134;DHT22;16946;49.984;10.672;2022-08-24T02:22:17;14.40;99.90
30134;DHT22;16946;49.984;10.672;2022-08-24T02:22:50;14.40;99.90
30134;DHT22;16946;49.984;10.672;2022-08-24T02:23:21;14.40;99.90
30134;DHT22;16946;49.984;10.672;2022-08-24T02:23:51;14.40;99.90
30134;DHT22;16946;49.984;10.672;2022-08-24T02:24:22;14.40;99.90
30134;DHT22;16946;49.984;10.672;2022-08-24T02:24:53;14.30;99.90
30134;DHT22;16946;49.984;10.672;2022-08-24T02:25:24;14.30;99.90
30134;DHT22;16946;49.984;10.672;2022-08-24T02:25:55;14.20;99.90
30134;DHT22;16946;49.984;10.672;2022-08-24T02:26:26;14.10;99.90
30134;DHT22;16946;49.984;10.672;2022-08-24T02:26:57;14.10;99.90
30134;DHT22;16946;49.984;10.672;2022-08-24T02:27:27;14.10;99.90
30134;DHT22;16946;49.984;10.672;2022-08-24T02:27:59;14.00;99.90
30134;DHT22;16946;49.984;10.672;2022-08-24T02:28:31;13.90;99.90
30134;DHT22;16946;49.984;10.672;2022-08-24T02:29:02;13.80;99.90
30134;DHT22;16946;49.984;10.672;2022-08-24T02:29:33;13.80;99.90
30134;DHT22;16946;49.984;10.672;2022-08-24T02:30:04;13.80;99.90
30134;DHT22;16946;49.984;10.672;2022-08-24T02:30:35;13.80;99.90
30134;DHT22;16946;49.984;10.672;2022-08-24T02:31:08;13.80;99.90
30134;DHT22;16946;49.984;10.672;2022-08-24T02:31:39;13.80;99.90
30134;DHT22;16946;49.984;10.672;2022-08-24T02:32:10;13.90;99.90
30134;DHT22;16946;49.984;10.672;2022-08-24T02:32:41;13.90;99.90
30134;DHT22;16946;49.984;10.672;2022-08-24T02:33:13;13.80;99.90
30134;DHT22;16946;49.984;10.672;2022-08-24T02:33:43;13.80;99.90
30134;DHT22;16946;49.984;10.672;2022-08-24T02:34:14;13.80;99.90
30134;DHT22;16946;49.984;10.672;2022-08-24T02:34:45;13.70;99.90
30134;DHT22;16946;49.984;10.672;2022-08-24T02:35:16;13.70;99.90
30134;DHT22;16946;49.984;10.672;2022-08-24T02:35:46;13.70;99.90
30134;DHT22;16946;49.984;10.672;2022-08-24T02:36:17;13.70;99.90
30134;DHT22;16946;49.984;10.672;2022-08-24T02:36:48;13.70;99.90
30134;DHT22;16946;49.984;10.672;2022-08-24T02:37:18;13.80;99.90
30134;DHT22;16946;49.984;10.672;2022-08-24T02:37:49;13.70;99.90
30134;DHT22;16946;49.984;10.672;2022-08-24T02:38:20;13.70;99.90
30134;DHT22;16946;49.984;10.672;2022-08-24T02:38:51;13.70;99.90
30134;DHT22;16946;49.984;10.672;2022-08-24T02:39:21;13.80;99.90
30134;DHT22;16946;49.984;10.672;2022-08-24T02:39:52;13.80;99.90
30134;DHT22;16946;49.984;10.672;2022-08-24T02:40:22;13.80;99.90
30134;DHT22;16946;49.984;10.672;2022-08-24T02:40:53;13.80;99.90
30134;DHT22;16946;49.984;10.672;2022-08-24T02:41:25;13.90;99.90
30134;DHT22;16946;49.984;10.672;2022-08-24T02:41:55;13.90;99.90
30134;DHT22;16946;49.984;10.672;2022-08-24T02:42:26;14.00;99.90
30134;DHT22;16946;49.984;10.672;2022-08-24T02:42:57;14.20;99.90
30134;DHT22;16946;49.984;10.672;2022-08-24T02:43:28;14.30;99.90
30134;DHT22;16946;49.984;10.672;2022-08-24T02:43:58;14.70;99.90
30134;DHT22;16946;49.984;10.672;2022-08-24T02:44:29;15.00;99.90
30134;DHT22;16946;49.984;10.672;2022-08-24T02:45:00;15.20;99.90
30134;DHT22;16946;49.984;10.672;2022-08-24T02:45:32;15.20;99.90
30134;DHT22;16946;49.984;10.672;2022-08-24T02:46:02;15.30;99.90
30134;DHT22;16946;49.984;10.672;2022-08-24T02:46:33;15.40;99.90
30134;DHT22;16946;49.984;10.672;2022-08-24T02:47:04;15.50;99.90
30134;DHT22;16946;49.984;10.672;2022-08-24T02:47:35;15.50;99.90
30134;DHT22;16946;49.984;10.672;2022-08-24T02:48:05;15.70;99.90
30134;DHT22;16946;49.984;10.672;2022-08-24T02:48:36;15.80;99.90
30134;DHT22;16946;49.984;10.672;2022-08-24T02:49:06;15.70;99.90
30134;DHT22;16946;49.984;10.672;2022-08-24T02:49:37;15.80;99.90
30134;DHT22;16946;49.984;10.672;2022-08-24T02:50:10;15.80;99.90
30134;DHT22;16946;49.984;10.672;2022-08-24T02:50:43;15.80;99.90
30134;DHT22;16946;49.984;10.672;2022-08-24T02:51:32;15.80;99.90
30134;DHT22;16946;49.984;10.672;2022-08-24T02:52:03;15.70;99.90
30134;DHT22;16946;49.984;10.672;2022-08-24T02:52:36;15.60;99.90
30134;DHT22;16946;49.984;10.672;2022-08-24T02:53:07;15.50;99.90
30134;DHT22;16946;49.984;10.672;2022-08-24T02:53:37;15.40;99.90
30134;DHT22;16946;49.984;10.672;2022-08-24T02:54:08;15.40;99.90
30134;DHT22;16946;49.984;10.672;2022-08-24T02:54:38;15.30;99.90
30134;DHT22;16946;49.984;10.672;2022-08-24T02:55:13;15.20;99.90
30134;DHT22;16946;49.984;10.672;2022-08-24T02:55:44;15.20;99.90
30134;DHT22;16946;49.984;10.672;2022-08-24T02:56:15;15.10;99.90
30134;DHT22;16946;49.984;10.672;2022-08-24T02:56:46;14.90;99.90
30134;DHT22;16946;49.984;10.672;2022-08-24T02:57:17;14.70;99.90
30134;DHT22;16946;49.984;10.672;2022-08-24T02:57:48;14.60;99.90
30134;DHT22;16946;49.984;10.672;2022-08-24T02:58:19;14.60;99.90
30134;DHT22;16946;49.984;10.672;2022-08-24T02:58:50;14.50;99.90
30134;DHT22;16946;49.984;10.672;2022-08-24T02:59:22;14.40;99.90
30134;DHT22;16946;49.984;10.672;2022-08-24T02:59:53;14.20;99.90
30134;DHT22;16946;49.984;10.672;2022-08-24T03:00:24;14.10;99.90
30134;DHT22;16946;49.984;10.672;2022-08-24T03:00:55;14.20;99.90
30134;DHT22;16946;49.984;10.672;2022-08-24T03:01:27;14.20;99.90
30134;DHT22;16946;49.984;10.672;2022-08-24T03:01:57;14.20;99.90
30134;DHT22;16946;49.984;10.672;2022-08-24T03:02:28;14.30;99.90
30134;DHT22;16946;49.984;10.672;2022-08-24T03:02:58;14.30;99.90
30134;DHT22;16946;49.984;10.672;2022-08-24T03:03:29;14.30;99.90
30134;DHT22;16946;49.984;10.672;2022-08-24T03:04:00;14.50;99.90
30134;DHT22;16946;49.984;10.672;2022-08-24T03:04:31;14.60;99.90
30134;DHT22;16946;49.984;10.672;2022-08-24T03:05:02;14.60;99.90
30134;DHT22;16946;49.984;10.672;2022-08-24T03:05:33;14.70;99.90
30134;DHT22;16946;49.984;10.672;2022-08-24T03:06:06;14.80;99.90
30134;DHT22;16946;49.984;10.672;2022-08-24T03:06:37;14.80;99.90
30134;DHT22;16946;49.984;10.672;2022-08-24T03:07:07;14.90;99.90
30134;DHT22;16946;49.984;10.672;2022-08-24T03:07:38;14.90;99.90
30134;DHT22;16946;49.984;10.672;2022-08-24T03:08:08;15.00;99.90
30134;DHT22;16946;49.984;10.672;2022-08-24T03:08:39;15.10;99.90
30134;DHT22;16946;49.984;10.672;2022-08-24T03:09:10;15.20;99.90
30134;DHT22;16946;49.984;10.672;2022-08-24T03:09:40;15.30;99.90
30134;DHT22;16946;49.984;10.672;2022-08-24T03:10:11;15.30;99.90
30134;DHT22;16946;49.984;10.672;2022-08-24T03:10:42;15.30;99.90
30134;DHT22;16946;49.984;10.672;2022-08-24T03:11:12;15.20;99.90
30134;DHT22;16946;49.984;10.672;2022-08-24T03:11:43;15.20;99.90
30134;DHT22;16946;49.984;10.672;2022-08-24T03:12:14;15.10;99.90
30134;DHT22;16946;49.984;10.672;2022-08-24T03:12:44;15.10;99.90
30134;DHT22;16946;49.984;10.672;2022-08-24T03:13:15;15.20;99.90
30134;DHT22;16946;49.984;10.672;2022-08-24T03:13:47;15.20;99.90
30134;DHT22;16946;49.984;10.672;2022-08-24T03:14:18;15.40;99.90
30134;DHT22;16946;49.984;10.672;2022-08-24T03:14:48;15.60;99.90
30134;DHT22;16946;49.984;10.672;2022-08-24T03:15:19;15.60;99.90
30134;DHT22;16946;49.984;10.672;2022-08-24T03:15:52;15.80;99.90
30134;DHT22;16946;49.984;10.672;2022-08-24T03:16:23;16.00;99.90
30134;DHT22;16946;49.984;10.672;2022-08-24T03:16:54;16.10;99.90
30134;DHT22;16946;49.984;10.672;2022-08-24T03:17:24;16.10;99.90
30134;DHT22;16946;49.984;10.672;2022-08-24T03:17:55;16.20;99.90
30134;DHT22;16946;49.984;10.672;2022-08-24T03:18:26;16.10;99.90
30134;DHT22;16946;49.984;10.672;2022-08-24T03:18:57;16.00;99.90
30134;DHT22;16946;49.984;10.672;2022-08-24T03:19:27;16.00;99.90
30134;DHT22;16946;49.984;10.672;2022-08-24T03:19:59;15.90;99.90
30134;DHT22;16946;49.984;10.672;2022-08-24T03:20:30;15.70;99.90
30134;DHT22;16946;49.984;10.672;2022-08-24T03:21:02;15.60;99.90
30134;DHT22;16946;49.984;10.672;2022-08-24T03:21:32;15.40;99.90
30134;DHT22;16946;49.984;10.672;2022-08-24T03:22:03;15.30;99.90
30134;DHT22;16946;49.984;10.672;2022-08-24T03:22:34;15.10;99.90
30134;DHT22;16946;49.984;10.672;2022-08-24T03:23:04;15.00;99.90
30134;DHT22;16946;49.984;10.672;2022-08-24T03:23:36;14.90;99.90
30134;DHT22;16946;49.984;10.672;2022-08-24T03:24:07;14.70;99.90
30134;DHT22;16946;49.984;10.672;2022-08-24T03:24:38;14.50;99.90